Terminal Aerodrome Forecast
Issued by NWS

Home | Current Version | Previous Version | Text Only | Print | Product List | Glossary On
Versions: 1 2 3 4 5 6 7 8 9 10 11 12 13
000
FTUS44 KEPZ 052320
TAFDMN
TAF
KDMN 052320Z 0600/0624 12012G18KT P6SM SCT100
     FM060600 22009KT P6SM FEW120 FEW250
     FM061700 21013G23KT P6SM FEW100
     FM062100 24018G28KT P6SM FEW100=

USA.gov is the U.S. government's official web portal to all federal, state and local government web resources and services.